sensor_id;sensor_type;location;lat;lon;timestamp;pressure;altitude;pressure_sealevel;temperature;humidity
20003;BME280;10162;41.600;23.806;2023-01-29T00:00:05;95118.75;;;1.70;100.00
20003;BME280;10162;41.600;23.806;2023-01-29T00:18:33;95136.06;;;1.77;100.00
20003;BME280;10162;41.600;23.806;2023-01-29T00:26:08;95135.25;;;1.77;100.00
20003;BME280;10162;41.600;23.806;2023-01-29T00:28:38;95156.44;;;1.71;100.00
20003;BME280;10162;41.600;23.806;2023-01-29T00:31:09;95109.81;;;1.54;100.00
20003;BME280;10162;41.600;23.806;2023-01-29T03:21:43;95163.16;;;-0.22;100.00
20003;BME280;10162;41.600;23.806;2023-01-29T06:35:19;95331.09;;;1.38;100.00
20003;BME280;10162;41.600;23.806;2023-01-29T06:37:46;95317.97;;;1.41;100.00
20003;BME280;10162;41.600;23.806;2023-01-29T06:40:40;95298.97;;;1.33;100.00
20003;BME280;10162;41.600;23.806;2023-01-29T06:48:03;95336.16;;;1.59;100.00
20003;BME280;10162;41.600;23.806;2023-01-29T07:53:55;95364.78;;;3.07;100.00
20003;BME280;10162;41.600;23.806;2023-01-29T07:56:51;95364.16;;;2.85;100.00
20003;BME280;10162;41.600;23.806;2023-01-29T08:12:09;95360.25;;;3.18;100.00
20003;BME280;10162;41.600;23.806;2023-01-29T08:14:36;95376.88;;;3.33;100.00
20003;BME280;10162;41.600;23.806;2023-01-29T08:17:02;95390.91;;;3.58;100.00
20003;BME280;10162;41.600;23.806;2023-01-29T08:19:28;95381.19;;;3.60;100.00
20003;BME280;10162;41.600;23.806;2023-01-29T08:21:53;95386.00;;;3.55;100.00
20003;BME280;10162;41.600;23.806;2023-01-29T08:24:20;95384.19;;;3.38;100.00
20003;BME280;10162;41.600;23.806;2023-01-29T08:26:46;95366.09;;;3.38;100.00
20003;BME280;10162;41.600;23.806;2023-01-29T08:29:14;95393.75;;;3.55;100.00
20003;BME280;10162;41.600;23.806;2023-01-29T08:35:33;95387.53;;;3.76;100.00
20003;BME280;10162;41.600;23.806;2023-01-29T08:38:01;95403.81;;;3.76;100.00
20003;BME280;10162;41.600;23.806;2023-01-29T08:40:29;95381.31;;;3.86;100.00
20003;BME280;10162;41.600;23.806;2023-01-29T08:43:04;95405.53;;;3.85;100.00
20003;BME280;10162;41.600;23.806;2023-01-29T08:45:37;95413.00;;;4.06;100.00
20003;BME280;10162;41.600;23.806;2023-01-29T08:48:13;95406.50;;;4.63;100.00
20003;BME280;10162;41.600;23.806;2023-01-29T08:50:46;95386.69;;;4.28;100.00
20003;BME280;10162;41.600;23.806;2023-01-29T08:53:28;95396.16;;;4.63;100.00
20003;BME280;10162;41.600;23.806;2023-01-29T08:56:14;95405.50;;;4.82;100.00
20003;BME280;10162;41.600;23.806;2023-01-29T08:58:44;95377.19;;;4.54;100.00
20003;BME280;10162;41.600;23.806;2023-01-29T09:01:12;95420.84;;;4.49;99.66
20003;BME280;10162;41.600;23.806;2023-01-29T09:03:44;95372.16;;;3.92;100.00
20003;BME280;10162;41.600;23.806;2023-01-29T09:06:13;95408.16;;;4.64;100.00
20003;BME280;10162;41.600;23.806;2023-01-29T09:08:40;95391.19;;;4.70;100.00
20003;BME280;10162;41.600;23.806;2023-01-29T09:11:06;95384.38;;;4.69;98.14
20003;BME280;10162;41.600;23.806;2023-01-29T09:16:57;95398.66;;;5.32;97.89
20003;BME280;10162;41.600;23.806;2023-01-29T09:19:26;95395.31;;;5.48;93.55
20003;BME280;10162;41.600;23.806;2023-01-29T09:21:51;95380.25;;;5.52;93.44
20003;BME280;10162;41.600;23.806;2023-01-29T09:28:12;95362.16;;;5.18;94.26
20003;BME280;10162;41.600;23.806;2023-01-29T09:30:39;95365.81;;;5.41;94.91
20003;BME280;10162;41.600;23.806;2023-01-29T09:33:44;95395.03;;;5.17;93.04
20003;BME280;10162;41.600;23.806;2023-01-29T09:36:21;95376.75;;;5.27;94.30
20003;BME280;10162;41.600;23.806;2023-01-29T09:38:50;95340.16;;;4.88;91.89
20003;BME280;10162;41.600;23.806;2023-01-29T09:48:19;95364.72;;;5.60;86.04
20003;BME280;10162;41.600;23.806;2023-01-29T09:50:52;95352.00;;;5.99;86.60
20003;BME280;10162;41.600;23.806;2023-01-29T09:56:47;95369.19;;;5.92;85.30
20003;BME280;10162;41.600;23.806;2023-01-29T09:59:21;95349.25;;;6.41;85.52
20003;BME280;10162;41.600;23.806;2023-01-29T10:10:18;95331.66;;;6.83;83.22
20003;BME280;10162;41.600;23.806;2023-01-29T10:13:13;95358.66;;;6.34;82.32
20003;BME280;10162;41.600;23.806;2023-01-29T10:21:14;95337.34;;;6.79;86.30
20003;BME280;10162;41.600;23.806;2023-01-29T10:26:13;95339.06;;;7.02;84.01
20003;BME280;10162;41.600;23.806;2023-01-29T10:28:44;95334.31;;;6.35;80.62
20003;BME280;10162;41.600;23.806;2023-01-29T10:31:30;95323.25;;;6.57;82.63
20003;BME280;10162;41.600;23.806;2023-01-29T10:34:18;95300.56;;;6.43;86.20
20003;BME280;10162;41.600;23.806;2023-01-29T10:36:48;95269.13;;;5.97;83.08
20003;BME280;10162;41.600;23.806;2023-01-29T10:39:21;95310.97;;;6.18;84.83
20003;BME280;10162;41.600;23.806;2023-01-29T10:41:53;95320.88;;;6.31;84.92
20003;BME280;10162;41.600;23.806;2023-01-29T10:50:29;95301.53;;;6.34;85.92
20003;BME280;10162;41.600;23.806;2023-01-29T10:53:15;95303.94;;;6.59;87.46
20003;BME280;10162;41.600;23.806;2023-01-29T10:58:48;95306.56;;;6.43;86.35
20003;BME280;10162;41.600;23.806;2023-01-29T11:01:15;95286.47;;;6.29;85.53
20003;BME280;10162;41.600;23.806;2023-01-29T11:03:41;95280.91;;;6.40;82.41
20003;BME280;10162;41.600;23.806;2023-01-29T11:06:23;95266.38;;;6.15;80.65
20003;BME280;10162;41.600;23.806;2023-01-29T11:14:32;95281.69;;;6.65;81.85
20003;BME280;10162;41.600;23.806;2023-01-29T11:17:02;95260.94;;;6.96;83.12
20003;BME280;10162;41.600;23.806;2023-01-29T11:19:38;95239.91;;;6.83;83.55
20003;BME280;10162;41.600;23.806;2023-01-29T11:22:15;95257.66;;;6.63;81.36
20003;BME280;10162;41.600;23.806;2023-01-29T11:27:40;95240.53;;;6.30;80.92
20003;BME280;10162;41.600;23.806;2023-01-29T11:30:38;95264.13;;;6.67;78.79
20003;BME280;10162;41.600;23.806;2023-01-29T11:33:22;95260.53;;;6.76;78.76
20003;BME280;10162;41.600;23.806;2023-01-29T11:35:48;95256.00;;;6.70;77.02
20003;BME280;10162;41.600;23.806;2023-01-29T11:38:25;95241.25;;;6.62;76.96
20003;BME280;10162;41.600;23.806;2023-01-29T11:41:04;95233.44;;;6.71;76.07
20003;BME280;10162;41.600;23.806;2023-01-29T11:43:33;95228.25;;;6.71;74.84
20003;BME280;10162;41.600;23.806;2023-01-29T11:46:10;95243.03;;;7.01;78.11
20003;BME280;10162;41.600;23.806;2023-01-29T11:48:49;95237.31;;;7.14;80.25
20003;BME280;10162;41.600;23.806;2023-01-29T11:51:26;95238.53;;;7.26;77.22
20003;BME280;10162;41.600;23.806;2023-01-29T11:54:03;95239.34;;;7.26;75.16
20003;BME280;10162;41.600;23.806;2023-01-29T11:56:48;95241.91;;;7.34;77.58
20003;BME280;10162;41.600;23.806;2023-01-29T11:59:34;95216.06;;;7.02;75.02
20003;BME280;10162;41.600;23.806;2023-01-29T12:02:16;95225.44;;;6.80;74.76
20003;BME280;10162;41.600;23.806;2023-01-29T12:04:46;95205.13;;;7.15;78.10
20003;BME280;10162;41.600;23.806;2023-01-29T12:07:14;95209.94;;;7.48;75.93
20003;BME280;10162;41.600;23.806;2023-01-29T12:09:54;95221.81;;;7.51;76.02
20003;BME280;10162;41.600;23.806;2023-01-29T12:12:48;95229.47;;;7.90;74.48
20003;BME280;10162;41.600;23.806;2023-01-29T12:15:22;95209.81;;;7.65;75.46
20003;BME280;10162;41.600;23.806;2023-01-29T12:17:57;95202.41;;;7.76;74.46
20003;BME280;10162;41.600;23.806;2023-01-29T12:20:29;95216.00;;;7.64;71.55
20003;BME280;10162;41.600;23.806;2023-01-29T12:26:07;95204.91;;;7.70;76.62
20003;BME280;10162;41.600;23.806;2023-01-29T12:28:42;95213.28;;;7.12;71.81
20003;BME280;10162;41.600;23.806;2023-01-29T12:40:20;95230.34;;;6.75;72.45
20003;BME280;10162;41.600;23.806;2023-01-29T12:43:03;95218.09;;;6.84;76.65
20003;BME280;10162;41.600;23.806;2023-01-29T12:45:31;95195.28;;;7.02;77.07
20003;BME280;10162;41.600;23.806;2023-01-29T12:48:12;95208.25;;;7.10;78.25
20003;BME280;10162;41.600;23.806;2023-01-29T12:50:40;95204.16;;;6.85;78.01
20003;BME280;10162;41.600;23.806;2023-01-29T12:57:07;95189.00;;;6.57;74.00
20003;BME280;10162;41.600;23.806;2023-01-29T12:59:45;95198.53;;;6.26;73.75
20003;BME280;10162;41.600;23.806;2023-01-29T13:08:21;95211.25;;;6.60;72.94
20003;BME280;10162;41.600;23.806;2023-01-29T13:10:53;95191.22;;;6.69;74.26
20003;BME280;10162;41.600;23.806;2023-01-29T13:13:37;95193.94;;;6.83;75.02
20003;BME280;10162;41.600;23.806;2023-01-29T13:16:12;95195.63;;;6.68;72.72
20003;BME280;10162;41.600;23.806;2023-01-29T13:19:02;95195.66;;;6.60;73.73
20003;BME280;10162;41.600;23.806;2023-01-29T13:21:36;95194.47;;;6.71;78.59
20003;BME280;10162;41.600;23.806;2023-01-29T13:24:26;95205.47;;;6.81;79.49
20003;BME280;10162;41.600;23.806;2023-01-29T13:26:56;95195.81;;;6.58;78.96
20003;BME280;10162;41.600;23.806;2023-01-29T13:29:27;95146.84;;;6.47;77.80
20003;BME280;10162;41.600;23.806;2023-01-29T13:31:58;95183.66;;;6.51;75.13
20003;BME280;10162;41.600;23.806;2023-01-29T13:34:33;95187.88;;;6.60;77.21
20003;BME280;10162;41.600;23.806;2023-01-29T13:37:08;95196.47;;;6.60;77.14
20003;BME280;10162;41.600;23.806;2023-01-29T13:39:37;95170.22;;;6.47;79.04
20003;BME280;10162;41.600;23.806;2023-01-29T13:45:35;95205.75;;;6.47;77.88
20003;BME280;10162;41.600;23.806;2023-01-29T13:50:50;95186.88;;;6.06;79.14
20003;BME280;10162;41.600;23.806;2023-01-29T13:56:59;95195.31;;;6.08;80.58
20003;BME280;10162;41.600;23.806;2023-01-29T13:59:49;95204.91;;;6.07;79.37
20003;BME280;10162;41.600;23.806;2023-01-29T14:02:27;95206.03;;;6.05;81.13
20003;BME280;10162;41.600;23.806;2023-01-29T14:10:46;95186.41;;;5.70;79.30
20003;BME280;10162;41.600;23.806;2023-01-29T14:17:26;95213.16;;;5.78;81.70
20003;BME280;10162;41.600;23.806;2023-01-29T14:20:18;95215.59;;;5.72;81.04
20003;BME280;10162;41.600;23.806;2023-01-29T14:22:59;95201.47;;;5.58;80.42
20003;BME280;10162;41.600;23.806;2023-01-29T14:25:42;95225.84;;;5.90;82.33
20003;BME280;10162;41.600;23.806;2023-01-29T14:28:24;95194.03;;;5.47;80.97
20003;BME280;10162;41.600;23.806;2023-01-29T14:30:51;95216.72;;;5.61;80.51
20003;BME280;10162;41.600;23.806;2023-01-29T14:37:40;95218.03;;;5.49;89.77
20003;BME280;10162;41.600;23.806;2023-01-29T14:40:22;95204.09;;;5.34;90.59
20003;BME280;10162;41.600;23.806;2023-01-29T14:46:45;95232.78;;;5.40;91.28
20003;BME280;10162;41.600;23.806;2023-01-29T14:52:22;95220.91;;;5.22;94.11
20003;BME280;10162;41.600;23.806;2023-01-29T14:54:52;95220.09;;;5.21;94.11
20003;BME280;10162;41.600;23.806;2023-01-29T14:57:22;95221.53;;;5.16;95.87
20003;BME280;10162;41.600;23.806;2023-01-29T14:59:56;95228.19;;;5.10;95.02
20003;BME280;10162;41.600;23.806;2023-01-29T15:02:26;95255.56;;;5.21;95.76
20003;BME280;10162;41.600;23.806;2023-01-29T15:04:59;95249.97;;;4.83;97.37
20003;BME280;10162;41.600;23.806;2023-01-29T15:07:32;95222.19;;;4.60;97.21
20003;BME280;10162;41.600;23.806;2023-01-29T15:10:16;95263.97;;;5.07;98.06
20003;BME280;10162;41.600;23.806;2023-01-29T15:20:30;95259.28;;;4.68;100.00
20003;BME280;10162;41.600;23.806;2023-01-29T15:27:19;95247.47;;;4.66;100.00
20003;BME280;10162;41.600;23.806;2023-01-29T15:29:52;95257.69;;;4.75;100.00
20003;BME280;10162;41.600;23.806;2023-01-29T15:32:26;95278.28;;;4.85;100.00
20003;BME280;10162;41.600;23.806;2023-01-29T15:34:55;95252.84;;;4.72;100.00
20003;BME280;10162;41.600;23.806;2023-01-29T15:37:29;95272.94;;;4.86;100.00
20003;BME280;10162;41.600;23.806;2023-01-29T15:39:56;95295.31;;;4.95;100.00
20003;BME280;10162;41.600;23.806;2023-01-29T15:42:24;95280.09;;;4.58;100.00
20003;BME280;10162;41.600;23.806;2023-01-29T15:56:18;95288.91;;;4.14;100.00
20003;BME280;10162;41.600;23.806;2023-01-29T15:58:48;95294.81;;;4.06;100.00
20003;BME280;10162;41.600;23.806;2023-01-29T16:01:16;95306.06;;;4.15;100.00
20003;BME280;10162;41.600;23.806;2023-01-29T16:07:52;95283.66;;;4.06;100.00
20003;BME280;10162;41.600;23.806;2023-01-29T16:10:30;95277.25;;;4.10;100.00
20003;BME280;10162;41.600;23.806;2023-01-29T16:16:52;95314.00;;;4.22;100.00
20003;BME280;10162;41.600;23.806;2023-01-29T16:19:25;95310.66;;;4.29;100.00
20003;BME280;10162;41.600;23.806;2023-01-29T16:22:02;95291.19;;;4.17;100.00
20003;BME280;10162;41.600;23.806;2023-01-29T16:28:25;95307.78;;;4.32;100.00
20003;BME280;10162;41.600;23.806;2023-01-29T16:30:56;95307.94;;;4.31;100.00
20003;BME280;10162;41.600;23.806;2023-01-29T16:37:21;95323.06;;;4.43;100.00
20003;BME280;10162;41.600;23.806;2023-01-29T16:39:49;95309.03;;;4.28;99.21
20003;BME280;10162;41.600;23.806;2023-01-29T16:45:05;95312.94;;;4.06;100.00
20003;BME280;10162;41.600;23.806;2023-01-29T16:48:19;95312.72;;;4.00;100.00
20003;BME280;10162;41.600;23.806;2023-01-29T16:54:41;95332.59;;;3.99;100.00
20003;BME280;10162;41.600;23.806;2023-01-29T16:57:24;95328.69;;;3.95;100.00
20003;BME280;10162;41.600;23.806;2023-01-29T17:00:02;95338.81;;;4.06;100.00
20003;BME280;10162;41.600;23.806;2023-01-29T17:02:35;95347.09;;;4.10;100.00
20003;BME280;10162;41.600;23.806;2023-01-29T17:05:21;95317.97;;;3.90;100.00
20003;BME280;10162;41.600;23.806;2023-01-29T17:07:48;95313.50;;;3.74;100.00
20003;BME280;10162;41.600;23.806;2023-01-29T17:10:18;95331.44;;;3.58;100.00
20003;BME280;10162;41.600;23.806;2023-01-29T17:37:26;95356.31;;;3.59;100.00
20003;BME280;10162;41.600;23.806;2023-01-29T17:51:30;95332.25;;;3.41;100.00
20003;BME280;10162;41.600;23.806;2023-01-29T17:54:34;95362.38;;;3.50;100.00
20003;BME280;10162;41.600;23.806;2023-01-29T17:57:27;95329.69;;;3.31;100.00
20003;BME280;10162;41.600;23.806;2023-01-29T18:04:03;95355.56;;;3.49;100.00
20003;BME280;10162;41.600;23.806;2023-01-29T18:06:48;95355.09;;;3.36;100.00
20003;BME280;10162;41.600;23.806;2023-01-29T18:25:11;95347.59;;;2.88;100.00
20003;BME280;10162;41.600;23.806;2023-01-29T18:27:54;95345.06;;;3.06;100.00
20003;BME280;10162;41.600;23.806;2023-01-29T18:30:21;95346.03;;;3.05;100.00
20003;BME280;10162;41.600;23.806;2023-01-29T18:33:24;95362.72;;;3.10;100.00
20003;BME280;10162;41.600;23.806;2023-01-29T18:39:33;95356.59;;;2.74;100.00
20003;BME280;10162;41.600;23.806;2023-01-29T18:42:10;95350.72;;;2.55;100.00
20003;BME280;10162;41.600;23.806;2023-01-29T18:44:56;95372.09;;;2.74;100.00
20003;BME280;10162;41.600;23.806;2023-01-29T18:47:45;95362.06;;;2.71;100.00
20003;BME280;10162;41.600;23.806;2023-01-29T18:51:07;95327.44;;;2.64;100.00
20003;BME280;10162;41.600;23.806;2023-01-29T18:57:27;95336.78;;;2.75;100.00
20003;BME280;10162;41.600;23.806;2023-01-29T19:00:03;95366.69;;;2.68;100.00
20003;BME280;10162;41.600;23.806;2023-01-29T19:11:22;95360.38;;;2.89;100.00
20003;BME280;10162;41.600;23.806;2023-01-29T19:18:14;95376.03;;;2.78;100.00
20003;BME280;10162;41.600;23.806;2023-01-29T19:21:12;95357.59;;;2.64;100.00
20003;BME280;10162;41.600;23.806;2023-01-29T19:46:34;95351.06;;;2.69;100.00
20003;BME280;10162;41.600;23.806;2023-01-29T20:01:26;95378.25;;;2.64;100.00
20003;BME280;10162;41.600;23.806;2023-01-29T20:28:51;95393.00;;;2.81;100.00
20003;BME280;10162;41.600;23.806;2023-01-29T20:53:30;95391.84;;;3.03;100.00
20003;BME280;10162;41.600;23.806;2023-01-29T21:16:19;95398.22;;;2.52;100.00
20003;BME280;10162;41.600;23.806;2023-01-29T22:01:01;95358.25;;;2.19;100.00
20003;BME280;10162;41.600;23.806;2023-01-29T22:31:22;95357.31;;;2.11;100.00
20003;BME280;10162;41.600;23.806;2023-01-29T22:45:00;95348.75;;;2.10;100.00
20003;BME280;10162;41.600;23.806;2023-01-29T22:47:35;95335.88;;;2.00;100.00
20003;BME280;10162;41.600;23.806;2023-01-29T22:50:02;95383.22;;;2.19;100.00
20003;BME280;10162;41.600;23.806;2023-01-29T22:57:02;95369.78;;;2.25;100.00
20003;BME280;10162;41.600;23.806;2023-01-29T22:59:28;95354.56;;;2.12;100.00
20003;BME280;10162;41.600;23.806;2023-01-29T23:16:58;95339.81;;;1.85;100.00
20003;BME280;10162;41.600;23.806;2023-01-29T23:19:25;95347.69;;;1.93;100.00
20003;BME280;10162;41.600;23.806;2023-01-29T23:21:54;95338.59;;;1.89;100.00
20003;BME280;10162;41.600;23.806;2023-01-29T23:29:28;95352.72;;;2.04;100.00
20003;BME280;10162;41.600;23.806;2023-01-29T23:32:27;95342.41;;;1.85;100.00
20003;BME280;10162;41.600;23.806;2023-01-29T23:58:03;95280.69;;;1.36;100.00
